Time;durP1;ratioP1;P1;durP2;ratioP2;P2;SDS_P1;SDS_P2;PMS_P1;PMS_P2;Temp;Humidity;BMP_temperature;BMP_pressure;BME280_temperature;BME280_humidity;BME280_pressure;Samples;Min_cycle;Max_cycle;Signal;HPM_P1;HPM_P2
2022/06/07 00:00:35;;;;;;;0.00;0.00;;;18.20;1.00;;;;;;5071869;28;20263;-69
2022/06/07 00:03:03;;;;;;;0.00;0.00;;;18.30;1.00;;;;;;5072562;28;20193;-69
2022/06/07 00:05:31;;;;;;;0.00;0.00;;;18.30;1.00;;;;;;5072405;28;20189;-69
2022/06/07 00:07:59;;;;;;;0.00;0.00;;;18.10;65.20;;;;;;5072627;28;20227;-68
2022/06/07 00:10:28;;;;;;;0.00;0.00;;;18.20;99.90;;;;;;5068854;28;20194;-68
2022/06/07 00:12:56;;;;;;;0.00;0.00;;;18.20;91.60;;;;;;5067516;28;20202;-69
2022/06/07 00:15:24;;;;;;;0.00;0.00;;;18.10;99.90;;;;;;5059175;28;20230;-68
2022/06/07 00:17:52;;;;;;;0.00;0.00;;;18.10;99.90;;;;;;5072198;28;20221;-69
2022/06/07 00:20:21;;;;;;;0.00;0.00;;;18.00;99.90;;;;;;5068912;28;20202;-69
2022/06/07 00:22:49;;;;;;;0.00;0.00;;;18.00;99.90;;;;;;5071373;28;20270;-69
2022/06/07 00:25:17;;;;;;;0.00;0.00;;;18.10;99.90;;;;;;5071709;28;20615;-69
2022/06/07 00:27:46;;;;;;;0.00;0.00;;;18.10;99.90;;;;;;5072255;28;20240;-70
2022/06/07 00:30:15;;;;;;;0.00;0.00;;;18.00;99.90;;;;;;5070637;28;20213;-71
2022/06/07 00:32:44;;;;;;;0.00;0.00;;;17.90;99.90;;;;;;5072349;28;20588;-69
2022/06/07 00:35:13;;;;;;;0.00;0.00;;;18.00;99.90;;;;;;5070591;28;20271;-70
2022/06/07 00:37:41;;;;;;;0.00;0.00;;;18.00;99.90;;;;;;5070509;28;20255;-69
2022/06/07 00:40:10;;;;;;;0.00;0.00;;;18.00;99.90;;;;;;5085122;28;20665;-69
2022/06/07 00:42:38;;;;;;;0.00;0.00;;;17.90;99.90;;;;;;5087080;28;20205;-69
2022/06/07 00:45:14;;;;;;;0.00;0.00;;;18.00;99.90;;;;;;5071796;28;20272;-69
2022/06/07 00:47:42;;;;;;;0.00;0.00;;;18.00;99.90;;;;;;5067821;28;20653;-69
2022/06/07 00:50:16;;;;;;;0.00;0.00;;;18.00;99.90;;;;;;5054960;28;20677;-69
2022/06/07 00:52:45;;;;;;;0.00;0.00;;;17.90;99.90;;;;;;5063344;28;20196;-70
2022/06/07 00:55:13;;;;;;;0.00;0.00;;;17.90;99.90;;;;;;5068550;28;20222;-69
2022/06/07 00:57:45;;;;;;;0.00;0.00;;;18.00;99.90;;;;;;5069885;28;20217;-69
2022/06/07 01:00:24;;;;;;;0.00;0.00;;;17.90;99.90;;;;;;5070307;28;20301;-70
2022/06/07 01:02:55;;;;;;;0.00;0.00;;;17.90;99.90;;;;;;5081098;28;20202;-69
2022/06/07 01:05:23;;;;;;;0.00;0.00;;;17.90;99.90;;;;;;5050098;28;20309;-69
2022/06/07 01:10:47;;;;;;;0.00;0.00;;;18.20;99.90;;;;;;5063639;28;20255;-69
2022/06/07 01:13:23;;;;;;;0.00;0.00;;;18.00;99.90;;;;;;5061123;28;20209;-70
2022/06/07 01:15:59;;;;;;;0.00;0.00;;;17.90;99.90;;;;;;5087067;28;20209;-70
2022/06/07 01:18:31;;;;;;;0.00;0.00;;;17.80;1.00;;;;;;5063072;28;20233;-70
2022/06/07 01:21:19;;;;;;;0.00;0.00;;;17.80;1.00;;;;;;5066626;28;20277;-70
2022/06/07 01:23:49;;;;;;;0.00;0.00;;;17.80;1.00;;;;;;5063009;28;20218;-69
2022/06/07 01:26:22;;;;;;;0.00;0.00;;;17.80;1.00;;;;;;5069658;28;20229;-70
2022/06/07 01:28:50;;;;;;;0.00;0.00;;;17.90;1.00;;;;;;5069764;28;20204;-69
2022/06/07 01:31:19;;;;;;;0.00;0.00;;;17.90;1.00;;;;;;5069645;28;20200;-69
2022/06/07 01:33:46;;;;;;;0.00;0.00;;;17.90;1.00;;;;;;5069580;28;20213;-70
2022/06/07 01:36:18;;;;;;;0.00;0.00;;;17.90;1.00;;;;;;5069828;28;20204;-70
2022/06/07 01:41:53;;;;;;;0.00;0.00;;;17.80;1.00;;;;;;5069993;28;20213;-69
2022/06/07 01:41:55;;;;;;;0.00;0.00;;;17.70;1.00;;;;;;5069441;28;20202;-69
2022/06/07 01:44:35;;;;;;;0.00;0.00;;;17.70;1.00;;;;;;5069446;28;20242;-69
2022/06/07 01:47:04;;;;;;;0.00;0.00;;;17.70;1.00;;;;;;5069290;28;20205;-69
2022/06/07 01:49:35;;;;;;;0.00;0.00;;;17.70;1.00;;;;;;5069679;28;20680;-69
2022/06/07 01:52:06;;;;;;;0.00;0.00;;;17.70;1.00;;;;;;5069990;28;20217;-69
2022/06/07 01:54:38;;;;;;;0.00;0.00;;;17.70;1.00;;;;;;5052946;28;20217;-69
2022/06/07 01:57:07;;;;;;;0.10;0.10;;;17.70;1.00;;;;;;5066806;28;20201;-68
2022/06/07 01:59:38;;;;;;;0.00;0.00;;;17.80;1.00;;;;;;5061380;28;20219;-68
2022/06/07 02:02:10;;;;;;;0.00;0.00;;;17.80;1.00;;;;;;5081658;28;20251;-69
2022/06/07 02:04:39;;;;;;;0.00;0.00;;;17.80;1.00;;;;;;5066399;28;20238;-69
2022/06/07 02:07:09;;;;;;;0.00;0.00;;;17.80;1.00;;;;;;5054414;28;20208;-69
2022/06/07 02:09:44;;;;;;;0.00;0.00;;;17.80;1.00;;;;;;5056989;28;20199;-68
2022/06/07 02:12:13;;;;;;;0.00;0.00;;;17.70;1.00;;;;;;5073364;28;20200;-68
2022/06/07 02:14:42;;;;;;;0.00;0.00;;;17.70;1.00;;;;;;5066606;28;20247;-68
2022/06/07 02:17:09;;;;;;;0.00;0.00;;;17.70;1.00;;;;;;5072757;28;20201;-69
2022/06/07 02:19:50;;;;;;;0.00;0.00;;;17.60;1.00;;;;;;5072392;28;20205;-69
2022/06/07 02:22:21;;;;;;;0.00;0.00;;;17.60;1.00;;;;;;5073108;28;20229;-69
2022/06/07 02:24:49;;;;;;;0.00;0.00;;;17.60;1.00;;;;;;5072871;28;20224;-69
2022/06/07 02:27:19;;;;;;;0.00;0.00;;;17.60;1.00;;;;;;5074382;28;20239;-69
2022/06/07 02:29:50;;;;;;;0.00;0.00;;;17.70;1.00;;;;;;5074524;28;20186;-69
2022/06/07 02:32:23;;;;;;;0.00;0.00;;;17.70;1.00;;;;;;5073620;28;20677;-69
2022/06/07 02:34:57;;;;;;;0.00;0.00;;;17.60;1.00;;;;;;5068469;28;20218;-69
2022/06/07 02:37:29;;;;;;;0.00;0.00;;;17.70;1.00;;;;;;5073786;28;20198;-69
2022/06/07 02:39:58;;;;;;;0.00;0.00;;;17.80;1.00;;;;;;5068019;28;20221;-69
2022/06/07 02:42:28;;;;;;;0.00;0.00;;;17.70;1.00;;;;;;5073669;28;20541;-69
2022/06/07 02:44:57;;;;;;;0.00;0.00;;;17.70;1.00;;;;;;5072844;28;20229;-69
2022/06/07 02:47:25;;;;;;;0.00;0.00;;;17.70;1.00;;;;;;5072327;28;20737;-68
2022/06/07 02:50:01;;;;;;;0.00;0.00;;;17.70;1.00;;;;;;5072893;28;20217;-68
2022/06/07 02:52:34;;;;;;;0.00;0.00;;;17.50;1.00;;;;;;5071482;28;20202;-69
2022/06/07 02:55:15;;;;;;;0.00;0.00;;;17.60;1.00;;;;;;5068492;28;20755;-69
2022/06/07 02:57:43;;;;;;;0.00;0.00;;;17.60;1.00;;;;;;5063614;28;20757;-69
2022/06/07 03:00:16;;;;;;;0.00;0.00;;;17.60;1.00;;;;;;5072506;28;20193;-69
2022/06/07 03:02:44;;;;;;;0.00;0.00;;;17.60;1.00;;;;;;5059635;28;20716;-70
2022/06/07 03:05:14;;;;;;;0.00;0.00;;;17.50;1.00;;;;;;5073053;28;20651;-69
2022/06/07 03:07:50;;;;;;;0.00;0.00;;;17.40;1.00;;;;;;5072207;28;20193;-69
2022/06/07 03:10:20;;;;;;;0.00;0.00;;;17.40;1.00;;;;;;5070241;28;20308;-69
2022/06/07 03:12:48;;;;;;;0.00;0.00;;;17.50;1.00;;;;;;5072956;28;20756;-70
2022/06/07 03:15:19;;;;;;;0.00;0.00;;;17.50;1.00;;;;;;5071430;28;20272;-70
2022/06/07 03:17:47;;;;;;;0.00;0.00;;;17.50;1.00;;;;;;5060873;28;20296;-69
2022/06/07 03:20:20;;;;;;;0.08;0.08;;;17.50;1.00;;;;;;5071839;28;20221;-69
2022/06/07 03:22:50;;;;;;;0.00;0.00;;;17.40;1.00;;;;;;5071278;28;20246;-69
2022/06/07 03:25:18;;;;;;;0.00;0.00;;;17.40;1.00;;;;;;5071946;28;20304;-69
2022/06/07 03:27:51;;;;;;;0.00;0.00;;;17.40;1.00;;;;;;5071716;28;20256;-69
2022/06/07 03:30:20;;;;;;;0.00;0.00;;;17.40;1.00;;;;;;5073227;28;20475;-69
2022/06/07 03:32:48;;;;;;;0.00;0.00;;;17.40;1.00;;;;;;5072077;28;20210;-69
2022/06/07 03:35:17;;;;;;;0.00;0.00;;;17.40;1.00;;;;;;5061907;28;20264;-69
2022/06/07 03:37:45;;;;;;;0.00;0.00;;;17.40;1.00;;;;;;5066771;28;20198;-69
2022/06/07 03:40:42;;;;;;;0.00;0.00;;;17.40;38.50;;;;;;5071343;28;20608;-68
2022/06/07 03:43:07;;;;;;;0.00;0.00;;;17.30;1.00;;;;;;5083095;28;20202;-68
2022/06/07 03:45:36;;;;;;;0.00;0.00;;;17.10;98.50;;;;;;5060688;28;20602;-68
2022/06/07 03:48:05;;;;;;;0.00;0.00;;;17.30;99.90;;;;;;5071946;28;20603;-68
2022/06/07 03:50:35;;;;;;;0.00;0.00;;;17.30;99.90;;;;;;5072511;28;20197;-68
2022/06/07 03:53:07;;;;;;;0.00;0.00;;;17.40;99.90;;;;;;5073011;28;20205;-69
2022/06/07 03:55:44;;;;;;;0.00;0.00;;;17.40;99.90;;;;;;5074091;28;20635;-69
2022/06/07 03:58:15;;;;;;;0.00;0.00;;;17.40;99.90;;;;;;5068734;28;20198;-69
2022/06/07 04:00:45;;;;;;;0.00;0.00;;;17.40;99.90;;;;;;5051178;28;20623;-68
2022/06/07 04:03:13;;;;;;;0.00;0.00;;;17.40;99.90;;;;;;5052075;28;20293;-69
2022/06/07 04:05:41;;;;;;;0.00;0.00;;;17.20;99.90;;;;;;5052304;28;20198;-69
2022/06/07 04:08:11;;;;;;;0.00;0.00;;;17.10;99.90;;;;;;5071247;28;20619;-69
2022/06/07 04:10:47;;;;;;;0.00;0.00;;;17.10;99.90;;;;;;5071409;28;20194;-69
2022/06/07 04:13:18;;;;;;;0.00;0.00;;;17.00;99.90;;;;;;5071998;28;20300;-68
2022/06/07 04:15:47;;;;;;;0.00;0.00;;;17.00;99.90;;;;;;5071417;28;20201;-68
2022/06/07 04:18:16;;;;;;;0.00;0.00;;;17.00;99.90;;;;;;5071129;28;20197;-69
2022/06/07 04:20:45;;;;;;;0.00;0.00;;;17.10;99.90;;;;;;5071383;28;20255;-69
2022/06/07 04:23:16;;;;;;;0.00;0.00;;;17.10;99.90;;;;;;5070904;28;20239;-69
2022/06/07 04:25:46;;;;;;;0.00;0.00;;;17.00;99.90;;;;;;5085305;28;20201;-69
2022/06/07 04:28:15;;;;;;;0.00;0.00;;;17.00;99.90;;;;;;5070541;28;20201;-69
2022/06/07 04:30:47;;;;;;;0.00;0.00;;;16.90;99.90;;;;;;5070560;28;20206;-68
2022/06/07 04:33:19;;;;;;;0.00;0.00;;;17.00;99.90;;;;;;5069898;28;20213;-68
2022/06/07 04:35:51;;;;;;;0.00;0.00;;;17.00;99.90;;;;;;5071567;28;20194;-67
2022/06/07 04:38:22;;;;;;;0.00;0.00;;;17.10;99.90;;;;;;5068892;28;20623;-67
2022/06/07 04:40:52;;;;;;;0.00;0.00;;;17.00;1.00;;;;;;5070340;28;20214;-68
2022/06/07 04:43:19;;;;;;;0.00;0.00;;;16.90;1.00;;;;;;5068920;28;20232;-67
2022/06/07 04:45:49;;;;;;;0.10;0.10;;;16.80;1.00;;;;;;5069800;28;20202;-67
2022/06/07 04:48:22;;;;;;;0.00;0.00;;;16.70;1.00;;;;;;5069957;28;20263;-68
2022/06/07 04:51:04;;;;;;;0.00;0.00;;;16.70;1.00;;;;;;5067959;28;20201;-69
2022/06/07 04:53:38;;;;;;;0.00;0.00;;;16.70;1.00;;;;;;5070584;28;20232;-68
2022/06/07 04:56:12;;;;;;;0.10;0.10;;;16.70;1.00;;;;;;5070672;28;20228;-68
2022/06/07 04:58:41;;;;;;;0.10;0.10;;;16.70;1.00;;;;;;5070356;28;20270;-68
2022/06/07 05:01:19;;;;;;;0.00;0.00;;;16.80;1.00;;;;;;5070608;28;20275;-68
2022/06/07 05:03:49;;;;;;;0.00;0.00;;;16.80;1.00;;;;;;5070157;28;20217;-67
2022/06/07 05:06:19;;;;;;;0.00;0.00;;;16.90;1.00;;;;;;5069286;28;20288;-68
2022/06/07 05:08:51;;;;;;;0.00;0.00;;;16.90;1.00;;;;;;5069778;28;20198;-67
2022/06/07 05:11:22;;;;;;;0.00;0.00;;;17.00;1.00;;;;;;5087419;28;20204;-66
2022/06/07 05:13:54;;;;;;;0.00;0.00;;;17.00;1.00;;;;;;5070895;28;20224;-67
2022/06/07 05:16:22;;;;;;;0.00;0.00;;;16.90;1.00;;;;;;5070263;28;20202;-68
2022/06/07 05:18:53;;;;;;;0.00;0.00;;;16.90;1.00;;;;;;5071000;28;20190;-68
2022/06/07 05:21:22;;;;;;;0.00;0.00;;;16.90;1.00;;;;;;5054806;28;20222;-68
2022/06/07 05:23:51;;;;;;;0.00;0.00;;;16.80;1.00;;;;;;5053718;28;20211;-68
2022/06/07 05:26:29;;;;;;;0.00;0.00;;;16.90;1.00;;;;;;5064921;28;20259;-68
2022/06/07 05:29:01;;;;;;;0.00;0.00;;;17.00;1.00;;;;;;5066956;28;20338;-67
2022/06/07 05:31:29;;;;;;;0.00;0.00;;;17.00;1.00;;;;;;5065503;28;20751;-67
2022/06/07 05:33:57;;;;;;;0.00;0.00;;;17.10;1.00;;;;;;5069361;28;20312;-68
2022/06/07 05:36:26;;;;;;;0.00;0.00;;;17.00;1.00;;;;;;5070561;28;20202;-68
2022/06/07 05:39:03;;;;;;;0.00;0.00;;;17.00;1.00;;;;;;5069463;28;20205;-68
2022/06/07 05:41:33;;;;;;;0.00;0.00;;;17.00;1.00;;;;;;5068896;28;20225;-68
2022/06/07 05:44:09;;;;;;;0.00;0.00;;;17.00;1.00;;;;;;5060017;28;20681;-69
2022/06/07 05:46:41;;;;;;;0.00;0.00;;;17.10;1.00;;;;;;5071413;28;20192;-68
2022/06/07 05:49:17;;;;;;;0.00;0.00;;;17.00;1.00;;;;;;5069223;28;20193;-68
2022/06/07 05:52:11;;;;;;;0.00;0.00;;;17.00;1.00;;;;;;5067685;28;20214;-68
2022/06/07 05:54:43;;;;;;;0.00;0.00;;;17.10;1.00;;;;;;5064449;28;20228;-67
2022/06/07 05:57:12;;;;;;;0.00;0.00;;;17.00;1.00;;;;;;5067733;28;20209;-68
2022/06/07 05:59:42;;;;;;;0.10;0.10;;;17.00;1.00;;;;;;5067608;28;20565;-67
2022/06/07 06:02:12;;;;;;;0.00;0.00;;;17.00;1.00;;;;;;5070451;28;20208;-68
2022/06/07 06:04:42;;;;;;;0.00;0.00;;;17.00;1.00;;;;;;5059131;28;20213;-67
2022/06/07 06:07:10;;;;;;;0.00;0.00;;;17.00;1.00;;;;;;5052097;28;20199;-68
2022/06/07 06:12:39;;;;;;;0.00;0.00;;;17.00;1.00;;;;;;5064373;28;20745;-71
2022/06/07 06:15:13;;;;;;;0.00;0.00;;;17.00;1.00;;;;;;5067358;28;20273;-70
2022/06/07 06:17:42;;;;;;;0.00;0.00;;;17.10;1.00;;;;;;5067136;28;20197;-72
2022/06/07 06:20:19;;;;;;;0.00;0.00;;;17.10;1.00;;;;;;5068091;28;20213;-71
2022/06/07 06:22:51;;;;;;;0.00;0.00;;;17.10;1.00;;;;;;5069510;28;20193;-72
2022/06/07 06:25:18;;;;;;;0.00;0.00;;;17.10;1.00;;;;;;5068858;28;20248;-72
2022/06/07 06:27:49;;;;;;;0.00;0.00;;;17.10;1.00;;;;;;5069013;28;20243;-72
2022/06/07 06:30:17;;;;;;;0.00;0.00;;;17.10;1.00;;;;;;5070839;28;20407;-74
2022/06/07 06:33:01;;;;;;;0.00;0.00;;;17.10;1.00;;;;;;5069706;28;20198;-74
2022/06/07 06:35:31;;;;;;;0.00;0.00;;;17.10;1.00;;;;;;5063919;28;20233;-74
2022/06/07 06:37:59;;;;;;;0.00;0.00;;;17.10;1.00;;;;;;5065678;28;20209;-74
2022/06/07 06:40:28;;;;;;;0.00;0.00;;;17.20;1.00;;;;;;5066434;28;20206;-73
2022/06/07 06:43:02;;;;;;;0.00;0.00;;;17.30;1.00;;;;;;5068723;28;20615;-68
2022/06/07 06:45:50;;;;;;;0.00;0.00;;;17.30;1.00;;;;;;5069849;28;20681;-68
2022/06/07 06:48:21;;;;;;;0.00;0.00;;;17.30;1.00;;;;;;5062526;28;20244;-67
2022/06/07 06:51:00;;;;;;;0.00;0.00;;;17.20;99.90;;;;;;5053723;28;20228;-68
2022/06/07 06:53:28;;;;;;;0.00;0.00;;;17.20;99.90;;;;;;5066737;28;20704;-68
2022/06/07 06:56:02;;;;;;;0.00;0.00;;;17.20;99.90;;;;;;5070398;28;20388;-68
2022/06/07 06:58:33;;;;;;;0.00;0.00;;;17.30;99.90;;;;;;5071271;28;20259;-68
2022/06/07 07:01:02;;;;;;;0.00;0.00;;;17.30;99.90;;;;;;5066495;28;20214;-68
2022/06/07 07:03:33;;;;;;;0.00;0.00;;;17.40;99.90;;;;;;5068445;28;20681;-68
2022/06/07 07:06:01;;;;;;;0.00;0.00;;;17.40;99.90;;;;;;5064157;28;20212;-68
2022/06/07 07:08:33;;;;;;;0.00;0.00;;;17.40;99.90;;;;;;5063755;28;20288;-69
2022/06/07 07:11:07;;;;;;;0.00;0.00;;;17.40;99.90;;;;;;5072119;28;20208;-68
2022/06/07 07:13:38;;;;;;;0.00;0.00;;;17.50;82.80;;;;;;5069755;28;20270;-69
2022/06/07 07:16:08;;;;;;;0.00;0.00;;;17.50;16.60;;;;;;5052481;28;20210;-68
2022/06/07 07:18:36;;;;;;;0.00;0.00;;;17.60;1.00;;;;;;5052302;28;20229;-68
2022/06/07 07:21:05;;;;;;;0.00;0.00;;;17.70;1.00;;;;;;5067530;28;20217;-68
2022/06/07 07:23:35;;;;;;;0.00;0.00;;;17.70;1.00;;;;;;5071695;28;20566;-68
2022/06/07 07:26:07;;;;;;;0.00;0.00;;;17.80;1.00;;;;;;5071893;28;20549;-67
2022/06/07 07:28:39;;;;;;;0.00;0.00;;;17.90;1.00;;;;;;5072603;28;20198;-67
2022/06/07 07:31:13;;;;;;;0.00;0.00;;;18.10;1.00;;;;;;5066754;28;20202;-67
2022/06/07 07:33:42;;;;;;;0.00;0.00;;;18.20;1.00;;;;;;5067866;28;20581;-67
2022/06/07 07:36:11;;;;;;;0.00;0.00;;;18.20;1.00;;;;;;5073674;28;20580;-67
2022/06/07 07:38:41;;;;;;;0.00;0.00;;;18.30;1.00;;;;;;5079922;28;20251;-68
2022/06/07 07:41:17;;;;;;;0.00;0.00;;;18.50;1.00;;;;;;5078998;28;20318;-67
2022/06/07 07:43:48;;;;;;;0.00;0.00;;;18.60;99.90;;;;;;5072322;28;20552;-67
2022/06/07 07:46:20;;;;;;;0.00;0.00;;;18.80;99.90;;;;;;5076080;28;20198;-68
2022/06/07 07:48:49;;;;;;;0.00;0.00;;;18.80;99.90;;;;;;5074550;28;20238;-67
2022/06/07 07:51:20;;;;;;;0.00;0.00;;;18.80;99.90;;;;;;5070247;28;20233;-67
2022/06/07 07:53:52;;;;;;;0.00;0.00;;;18.90;1.00;;;;;;5051979;28;20267;-68
2022/06/07 07:56:22;;;;;;;0.00;0.00;;;18.80;1.00;;;;;;5070117;28;20198;-67
2022/06/07 07:58:52;;;;;;;0.00;0.00;;;18.90;1.00;;;;;;5071543;28;20576;-69
2022/06/07 08:01:22;;;;;;;0.10;0.10;;;19.00;1.00;;;;;;5063756;28;20221;-68
2022/06/07 08:03:52;;;;;;;0.00;0.00;;;19.00;99.90;;;;;;5062391;28;20583;-68
2022/06/07 08:06:28;;;;;;;0.00;0.00;;;19.10;1.00;;;;;;5057633;28;20294;-67
2022/06/07 08:08:58;;;;;;;0.00;0.00;;;19.30;99.90;;;;;;5071836;28;20205;-68
2022/06/07 08:11:28;;;;;;;0.00;0.00;;;19.40;99.90;;;;;;5065153;28;20213;-68
2022/06/07 08:13:58;;;;;;;0.00;0.00;;;19.40;1.00;;;;;;5072214;28;20283;-67
2022/06/07 08:16:26;;;;;;;0.00;0.00;;;19.60;99.90;;;;;;5067192;28;20262;-68
2022/06/07 08:18:54;;;;;;;0.10;0.10;;;19.70;99.90;;;;;;5065390;28;20268;-68
2022/06/07 08:21:26;;;;;;;0.00;0.00;;;19.80;1.00;;;;;;5062815;28;20213;-67
2022/06/07 08:23:56;;;;;;;0.00;0.00;;;19.70;1.00;;;;;;5068099;28;20221;-69
2022/06/07 08:26:26;;;;;;;0.00;0.00;;;19.70;1.00;;;;;;5072371;28;20193;-68
2022/06/07 08:28:54;;;;;;;0.00;0.00;;;19.70;1.00;;;;;;5071556;28;20197;-67
2022/06/07 08:31:26;;;;;;;0.00;0.00;;;19.70;99.90;;;;;;5060926;28;20190;-70
2022/06/07 08:39:26;;;;;;;0.00;0.00;;;20.00;1.00;;;;;;5068900;28;20605;-68
2022/06/07 08:41:57;;;;;;;0.00;0.00;;;19.90;95.90;;;;;;5072520;28;20244;-67
2022/06/07 08:44:32;;;;;;;0.00;0.00;;;20.10;1.00;;;;;;5063831;28;20280;-68
2022/06/07 08:47:06;;;;;;;0.00;0.00;;;20.10;1.00;;;;;;5070616;28;20201;-69
2022/06/07 08:49:35;;;;;;;0.00;0.00;;;20.20;1.00;;;;;;5071222;28;20212;-69
2022/06/07 08:52:12;;;;;;;0.00;0.00;;;20.20;1.00;;;;;;5087717;28;20240;-68
2022/06/07 08:54:41;;;;;;;0.00;0.00;;;20.20;99.90;;;;;;5071750;28;20220;-68
2022/06/07 08:57:18;;;;;;;0.00;0.00;;;20.30;99.90;;;;;;5071993;28;20263;-68
2022/06/07 08:59:48;;;;;;;0.00;0.00;;;20.50;99.90;;;;;;5071619;28;20202;-69
2022/06/07 09:02:39;;;;;;;0.00;0.00;;;20.40;99.90;;;;;;5069281;28;20217;-68
2022/06/07 09:05:11;;;;;;;0.00;0.00;;;20.70;99.90;;;;;;5051912;28;20640;-68
2022/06/07 09:07:39;;;;;;;0.00;0.00;;;20.50;99.90;;;;;;5051559;28;20205;-68
2022/06/07 09:13:00;;;;;;;0.00;0.00;;;20.80;99.90;;;;;;5051708;28;20662;-68
2022/06/07 09:15:30;;;;;;;0.00;0.00;;;20.80;99.90;;;;;;5050704;28;20280;-68
2022/06/07 09:18:02;;;;;;;0.00;0.00;;;20.70;99.90;;;;;;5051218;28;20202;-68
2022/06/07 09:20:37;;;;;;;0.00;0.00;;;20.80;99.90;;;;;;5051184;28;20206;-68
2022/06/07 09:23:14;;;;;;;0.00;0.00;;;21.00;61.90;;;;;;5051424;28;20228;-68
2022/06/07 09:25:48;;;;;;;0.00;0.00;;;20.80;71.70;;;;;;5051516;28;20567;-69
2022/06/07 09:28:18;;;;;;;0.00;0.00;;;21.00;75.10;;;;;;5051064;28;20227;-69
2022/06/07 09:30:47;;;;;;;0.00;0.00;;;21.20;93.00;;;;;;5051819;28;20216;-68
2022/06/07 09:33:24;;;;;;;0.00;0.00;;;21.10;58.30;;;;;;5051048;28;20249;-68
2022/06/07 09:35:55;;;;;;;0.00;0.00;;;21.20;60.20;;;;;;5051395;28;20197;-68
2022/06/07 09:38:31;;;;;;;0.00;0.00;;;21.20;57.50;;;;;;5050714;28;20198;-68
2022/06/07 09:41:36;;;;;;;0.00;0.00;;;21.30;88.10;;;;;;5051187;28;20197;-68
2022/06/07 09:44:00;;;;;;;0.00;0.00;;;21.40;81.70;;;;;;5050848;28;20241;-68
2022/06/07 09:46:30;;;;;;;0.00;0.00;;;21.40;53.60;;;;;;5051143;28;20198;-69
2022/06/07 09:49:00;;;;;;;0.00;0.00;;;21.40;50.90;;;;;;5050912;28;20259;-69
2022/06/07 09:51:37;;;;;;;0.00;0.00;;;21.50;30.00;;;;;;5050351;28;20195;-68
2022/06/07 09:54:14;;;;;;;0.00;0.00;;;21.60;22.40;;;;;;5049782;28;20229;-68
2022/06/07 09:56:50;;;;;;;0.00;0.00;;;21.40;4.80;;;;;;5050719;28;20590;-69
2022/06/07 09:59:42;;;;;;;0.00;0.00;;;21.60;2.40;;;;;;5050818;28;20204;-69
2022/06/07 10:02:36;;;;;;;0.00;0.00;;;21.80;1.00;;;;;;5051045;28;20230;-68
2022/06/07 10:05:17;;;;;;;0.00;0.00;;;21.90;1.00;;;;;;5050983;28;20717;-68
2022/06/07 10:07:50;;;;;;;0.00;0.00;;;22.20;1.00;;;;;;5061337;28;20205;-69
2022/06/07 10:10:26;;;;;;;0.00;0.00;;;22.00;1.00;;;;;;5051004;28;20199;-69
2022/06/07 10:13:06;;;;;;;0.00;0.00;;;22.10;1.00;;;;;;5051087;28;20658;-68
2022/06/07 10:15:40;;;;;;;0.00;0.00;;;22.40;1.00;;;;;;5063075;28;20480;-68
2022/06/07 10:18:28;;;;;;;0.00;0.00;;;22.60;1.00;;;;;;5071164;28;20251;-69
2022/06/07 10:21:21;;;;;;;0.00;0.00;;;23.00;1.00;;;;;;5071064;28;20193;-69
2022/06/07 10:24:06;;;;;;;0.00;0.00;;;22.60;1.00;;;;;;5070556;28;20225;-69
2022/06/07 10:26:44;;;;;;;0.00;0.00;;;22.70;1.00;;;;;;5070767;28;20614;-68
2022/06/07 10:29:20;;;;;;;0.00;0.00;;;22.60;1.00;;;;;;5074130;28;20243;-69
2022/06/07 10:31:54;;;;;;;0.00;0.00;;;22.90;1.00;;;;;;5074957;28;20194;-68
2022/06/07 10:34:34;;;;;;;0.00;0.00;;;23.00;1.00;;;;;;5074236;28;20618;-68
2022/06/07 10:37:14;;;;;;;0.00;0.00;;;22.70;1.00;;;;;;5074761;28;20568;-68
2022/06/07 10:39:51;;;;;;;0.00;0.00;;;22.60;1.00;;;;;;5074193;28;20198;-68
2022/06/07 10:42:29;;;;;;;0.00;0.00;;;22.90;1.00;;;;;;5074628;28;20221;-70
2022/06/07 10:45:04;;;;;;;0.00;0.00;;;23.30;1.00;;;;;;5074242;28;20225;-69
2022/06/07 10:47:38;;;;;;;0.00;0.00;;;23.40;1.00;;;;;;5074363;28;20201;-70
2022/06/07 10:50:20;;;;;;;0.00;0.00;;;23.30;1.00;;;;;;5074859;28;20189;-69
2022/06/07 10:53:00;;;;;;;0.00;0.00;;;23.00;1.00;;;;;;5074794;28;20205;-70
2022/06/07 10:55:34;;;;;;;0.00;0.00;;;22.70;1.00;;;;;;5074532;28;20213;-69
2022/06/07 10:58:15;;;;;;;0.00;0.00;;;22.30;1.00;;;;;;5076856;28;20204;-69
2022/06/07 11:00:48;;;;;;;0.00;0.00;;;22.20;1.00;;;;;;5078358;28;20196;-69
2022/06/07 11:03:26;;;;;;;0.00;0.00;;;22.10;1.00;;;;;;5076072;28;20225;-70
2022/06/07 11:11:41;;;;;;;0.00;0.00;;;22.10;3.10;;;;;;5056739;28;20203;-69
2022/06/07 11:14:24;;;;;;;0.00;0.00;;;22.20;8.30;;;;;;5054183;28;20226;-69
2022/06/07 11:17:00;;;;;;;0.00;0.00;;;22.30;5.50;;;;;;5061635;28;20426;-69
2022/06/07 11:19:28;;;;;;;0.00;0.00;;;22.20;5.30;;;;;;5073304;28;20602;-69
2022/06/07 11:21:58;;;;;;;0.00;0.00;;;22.10;1.00;;;;;;5073953;28;20205;-69
2022/06/07 11:24:30;;;;;;;0.00;0.00;;;21.90;1.00;;;;;;5073406;28;20278;-69
2022/06/07 11:27:18;;;;;;;0.00;0.00;;;21.70;1.00;;;;;;5073022;28;20433;-69
2022/06/07 11:29:47;;;;;;;0.00;0.00;;;21.80;1.00;;;;;;5073419;28;20735;-69
2022/06/07 11:32:48;;;;;;;0.00;0.00;;;21.90;1.00;;;;;;5073404;28;20197;-69
2022/06/07 11:35:50;;;;;;;0.00;0.00;;;21.90;1.00;;;;;;5073187;28;20214;-69
2022/06/07 11:38:28;;;;;;;0.00;0.00;;;22.00;1.00;;;;;;5072530;28;20669;-69
2022/06/07 11:41:40;;;;;;;0.00;0.00;;;21.90;1.00;;;;;;5073448;28;20251;-69
2022/06/07 11:44:30;;;;;;;0.00;0.00;;;21.70;1.00;;;;;;5073171;28;20225;-69
2022/06/07 11:47:02;;;;;;;0.00;0.00;;;21.60;1.00;;;;;;5073376;28;20197;-69
2022/06/07 11:49:42;;;;;;;0.00;0.00;;;21.70;1.00;;;;;;5073584;28;20698;-69
2022/06/07 11:52:23;;;;;;;0.00;0.00;;;21.60;1.00;;;;;;5075228;28;20255;-68
2022/06/07 11:54:54;;;;;;;0.00;0.00;;;21.70;1.00;;;;;;5074698;28;20717;-69
2022/06/07 11:58:00;;;;;;;0.00;0.00;;;21.90;1.00;;;;;;5073779;28;20259;-68
2022/06/07 12:00:47;;;;;;;0.00;0.00;;;22.00;1.00;;;;;;5073322;28;20228;-69
2022/06/07 12:03:34;;;;;;;0.00;0.00;;;22.20;1.00;;;;;;5072592;28;20218;-69
2022/06/07 12:06:23;;;;;;;0.00;0.00;;;22.10;1.00;;;;;;5072956;28;20204;-69
2022/06/07 12:08:58;;;;;;;0.00;0.00;;;22.00;1.00;;;;;;5065926;28;20212;-69
2022/06/07 12:11:29;;;;;;;0.00;0.00;;;21.90;1.00;;;;;;5057014;28;20617;-69
2022/06/07 12:14:18;;;;;;;0.00;0.00;;;21.70;1.00;;;;;;5052964;28;20226;-68
2022/06/07 12:16:55;;;;;;;0.00;0.00;;;21.70;1.00;;;;;;5059671;28;20216;-69
2022/06/07 12:19:25;;;;;;;0.00;0.00;;;21.70;1.00;;;;;;5064979;28;20220;-69
2022/06/07 12:21:57;;;;;;;0.00;0.00;;;21.80;1.00;;;;;;5069724;28;20205;-69
2022/06/07 12:24:25;;;;;;;0.00;0.00;;;21.80;1.00;;;;;;5052041;28;20244;-69
2022/06/07 12:26:54;;;;;;;0.00;0.00;;;22.00;1.00;;;;;;5057920;28;20205;-69
2022/06/07 12:29:25;;;;;;;0.00;0.00;;;21.90;1.00;;;;;;5057502;28;20210;-69
2022/06/07 12:31:56;;;;;;;0.00;0.00;;;22.00;1.00;;;;;;5052560;28;20202;-68
2022/06/07 12:34:26;;;;;;;0.00;0.00;;;22.30;1.00;;;;;;5055950;28;20214;-69
2022/06/07 12:36:57;;;;;;;0.00;0.00;;;22.60;1.00;;;;;;5072508;28;20573;-69
2022/06/07 12:39:26;;;;;;;0.00;0.00;;;23.00;1.00;;;;;;5072032;28;20209;-69
2022/06/07 12:41:57;;;;;;;0.00;0.00;;;23.30;1.00;;;;;;5072180;28;20197;-69
2022/06/07 12:44:31;;;;;;;0.00;0.00;;;23.10;1.00;;;;;;5071837;28;20226;-69
2022/06/07 12:47:02;;;;;;;0.00;0.00;;;23.10;1.00;;;;;;5072301;28;20227;-70
2022/06/07 12:49:42;;;;;;;0.00;0.00;;;23.10;1.00;;;;;;5072067;28;20208;-70
2022/06/07 12:52:16;;;;;;;0.00;0.00;;;23.00;1.00;;;;;;5072091;28;20584;-69
2022/06/07 12:54:49;;;;;;;0.00;0.00;;;22.90;1.00;;;;;;5072117;28;20220;-69
2022/06/07 12:57:22;;;;;;;0.00;0.00;;;22.40;1.00;;;;;;5071905;28;20232;-71
2022/06/07 13:00:00;;;;;;;0.00;0.00;;;22.30;1.00;;;;;;5072172;28;20198;-71
2022/06/07 13:02:37;;;;;;;0.00;0.00;;;22.40;1.00;;;;;;5072242;28;20314;-70
2022/06/07 13:05:08;;;;;;;0.00;0.00;;;22.40;1.00;;;;;;5072646;28;20233;-69
2022/06/07 13:07:44;;;;;;;0.00;0.00;;;22.30;1.00;;;;;;5068176;28;20636;-69
2022/06/07 13:10:15;;;;;;;0.00;0.00;;;22.20;1.00;;;;;;5055218;28;20202;-70
2022/06/07 13:12:47;;;;;;;0.00;0.00;;;22.20;1.00;;;;;;5055479;28;20209;-69
2022/06/07 13:15:19;;;;;;;0.00;0.00;;;22.10;1.00;;;;;;5054955;28;20214;-70
2022/06/07 13:17:57;;;;;;;0.00;0.00;;;22.30;1.00;;;;;;5054833;28;20666;-70
2022/06/07 13:20:27;;;;;;;0.00;0.00;;;22.30;1.00;;;;;;5053039;28;20198;-70
2022/06/07 13:22:55;;;;;;;0.00;0.00;;;21.90;1.00;;;;;;5051842;28;20615;-70
2022/06/07 13:25:26;;;;;;;0.00;0.00;;;22.20;1.00;;;;;;5051612;28;20229;-70
2022/06/07 13:28:01;;;;;;;0.00;0.00;;;22.40;1.00;;;;;;5051551;28;20252;-69
2022/06/07 13:30:38;;;;;;;0.00;0.00;;;22.40;1.00;;;;;;5051824;28;20197;-70
2022/06/07 13:33:26;;;;;;;0.00;0.00;;;22.50;1.00;;;;;;5051527;28;20194;-70
2022/06/07 13:35:57;;;;;;;0.00;0.00;;;22.50;1.00;;;;;;5051931;28;20222;-70
2022/06/07 13:38:30;;;;;;;0.00;0.00;;;22.60;1.00;;;;;;5051747;28;20207;-69
2022/06/07 13:41:22;;;;;;;0.00;0.00;;;22.60;1.00;;;;;;5052018;28;20566;-70
2022/06/07 13:43:54;;;;;;;0.00;0.00;;;22.80;1.00;;;;;;5052247;28;20304;-70